Aeroporto :
LOGIN :

Iscrizione | Disclaimer

   EN    FR    IT 

 










Sommario :    VFR   VFR Marginale   IFR   IFR Intensivo   IFR Molto Intensivo
Visibilità : 
Base nubi : 
>= 8 km
>= 3000ft
5 / 8 km
1000 / 3000 ft
1500m / 5 km
500 / 1000 ft
800 / 1500m
200 / 500 ft
< 800m
< 200 ft
Simboli :   Temporali  Nebbia  Neve Forte  Precipitazioni Forti  Vento > 20 kt
SIGMETs :   Varie  Temporali  Ghiacco  Turbolenza  Onda orograficha  Ceneri Vulcaniche






- Altitudine del aeroporto : 160 ft
- Codice IATA : LRT


LFRH - Lorient Lann Bihoue

ULTIMO METAR :
  • 230130Z AUTO 24015KT 5000 BR OVC004 11/10 Q1029

METARs OBSOLETI :
  • 230100Z AUTO 24015KT 6000 OVC004 11/10 Q1030 TEMPO 24020G30KT 0500 FG VV///
  • 230030Z AUTO 23017KT 6000 OVC003 11/10 Q1030 TEMPO 24020G30KT 0500 FG VV///
  • 230000Z AUTO 24017KT 7000 OVC003 11/10 Q1030 TEMPO 24020G30KT 0500 FG VV///
  • 222330Z AUTO 24016KT 4900 BR OVC003 11/10 Q1030 TEMPO 24020G30KT 0500 FG VV///
  • 222300Z AUTO 24016KT 6000 OVC004 11/10 Q1030 TEMPO 24020G30KT 0500 FG VV///

TAF TAF LFRH
Valido dal 23 a 00 ore il 24 a 00 ore UTC


222300Z 2300/2324 24010G25KT 6000 OVC004
TEMPO 2300/2324 1400 RADZ OVC002
PROB40
TEMPO 2300/2314 24020G30KT 0500 FG VV///



MetMap, La meteo Aeronautica in un colpo d'occhio ! - Copyright ORBIFLY Dicembre 2007 - Disclaimer

ORBIFLY MET'MAP TEAM :

Programmazione e sviluppo : Alexandra Zaïnal
Concezione : Baudouin d'Aumeries
Aiuto per la programmazione : Marc-Olivier Méhu
Supporto tecnico e logistico : Manuel Goepfert
Aiuto per la traduzione : Arnaldo La Scala

Contatto : metmap@orbifly.com




FONTI E CREDITI :

   NOAA